Time;durP1;ratioP1;P1;durP2;ratioP2;P2;SDS_P1;SDS_P2;PMS_P1;PMS_P2;Temp;Humidity;BMP_temperature;BMP_pressure;BME280_temperature;BME280_humidity;BME280_pressure;Samples;Min_cycle;Max_cycle;Signal;HPM_P1;HPM_P2
2021/04/10 00:01:22;;;;;;;14.85;6.68;;;11.70;69.50;;;;;;5053296;28;20025;-66
2021/04/10 00:03:47;;;;;;;13.05;6.68;;;11.60;69.60;;;;;;5053288;28;20029;-66
2021/04/10 00:06:13;;;;;;;15.75;6.55;;;11.60;69.60;;;;;;5053210;28;20025;-66
2021/04/10 00:08:39;;;;;;;17.20;6.35;;;11.60;69.60;;;;;;5052968;28;20032;-66
2021/04/10 00:11:05;;;;;;;12.38;6.10;;;11.60;69.70;;;;;;5053131;28;20048;-66
2021/04/10 00:13:31;;;;;;;13.57;6.43;;;11.60;70.00;;;;;;5053361;28;20432;-66
2021/04/10 00:15:57;;;;;;;20.30;5.82;;;11.50;69.60;;;;;;5053305;28;20048;-66
2021/04/10 00:18:23;;;;;;;10.65;6.10;;;11.60;69.60;;;;;;5053329;28;20029;-66
2021/04/10 00:20:49;;;;;;;9.95;6.10;;;11.50;69.60;;;;;;5053204;28;20396;-66
2021/04/10 00:23:14;;;;;;;20.75;6.53;;;11.50;70.00;;;;;;5052854;28;20025;-66
2021/04/10 00:25:40;;;;;;;9.68;6.32;;;11.50;70.20;;;;;;5053050;28;20421;-66
2021/04/10 00:28:06;;;;;;;14.43;6.45;;;11.50;71.10;;;;;;5052838;28;20029;-66
2021/04/10 00:30:32;;;;;;;10.30;6.05;;;11.40;70.90;;;;;;5035139;28;20481;-66
2021/04/10 00:32:58;;;;;;;15.82;6.40;;;11.40;71.30;;;;;;5052934;28;20530;-66
2021/04/10 00:35:23;;;;;;;15.25;6.85;;;11.40;71.20;;;;;;5052744;28;20025;-66
2021/04/10 00:37:49;;;;;;;15.57;5.80;;;11.40;70.50;;;;;;5052933;28;20029;-66
2021/04/10 00:40:15;;;;;;;14.30;6.50;;;11.40;70.20;;;;;;5052621;28;20040;-66
2021/04/10 00:42:41;;;;;;;11.95;6.30;;;11.40;70.30;;;;;;5053091;28;20028;-66
2021/04/10 00:45:08;;;;;;;18.48;6.30;;;11.40;70.70;;;;;;5053039;28;20470;-66
2021/04/10 00:47:34;;;;;;;16.85;6.60;;;11.40;70.50;;;;;;5052940;28;20052;-66
2021/04/10 00:50:00;;;;;;;11.15;5.50;;;11.40;71.50;;;;;;5052247;28;20466;-66
2021/04/10 00:52:27;;;;;;;16.63;6.03;;;11.30;71.30;;;;;;5052911;28;20100;-66
2021/04/10 00:54:52;;;;;;;22.27;6.53;;;11.30;71.20;;;;;;5052937;28;20387;-66
2021/04/10 00:57:19;;;;;;;17.65;6.78;;;11.30;71.10;;;;;;5052601;28;20031;-66
2021/04/10 00:59:46;;;;;;;11.60;5.68;;;11.30;71.20;;;;;;5049495;28;20071;-66
2021/04/10 01:02:13;;;;;;;14.40;6.30;;;11.30;71.60;;;;;;5049916;28;20108;-66
2021/04/10 01:04:42;;;;;;;15.02;6.13;;;11.30;71.60;;;;;;5051058;28;20025;-66
2021/04/10 01:07:08;;;;;;;15.80;6.15;;;11.30;71.70;;;;;;5054827;28;20401;-66
2021/04/10 01:09:35;;;;;;;15.45;6.30;;;11.30;71.70;;;;;;5056765;28;20021;-66
2021/04/10 01:12:28;;;;;;;20.35;6.43;;;11.30;71.30;;;;;;5056276;28;20493;-66
2021/04/10 01:15:21;;;;;;;14.68;6.57;;;11.30;71.50;;;;;;5056793;28;20033;-66
2021/04/10 01:17:53;;;;;;;28.70;6.68;;;11.20;72.00;;;;;;5056350;28;20041;-66
2021/04/10 01:20:56;;;;;;;48.72;7.88;;;11.30;71.70;;;;;;5055970;28;20112;-66
2021/04/10 01:23:52;;;;;;;21.75;6.38;;;11.30;71.30;;;;;;5056453;28;20385;-66
2021/04/10 01:26:39;;;;;;;21.00;6.07;;;11.30;71.50;;;;;;5056427;28;20366;-66
2021/04/10 01:29:13;;;;;;;18.02;6.25;;;11.30;71.70;;;;;;5056180;28;20024;-66
2021/04/10 01:31:42;;;;;;;19.95;6.00;;;11.30;71.80;;;;;;5056241;28;20013;-66
2021/04/10 01:34:16;;;;;;;14.57;5.90;;;11.30;72.10;;;;;;5056295;28;20107;-66
2021/04/10 01:36:45;;;;;;;15.98;5.70;;;11.30;72.60;;;;;;5055542;28;20086;-66
2021/04/10 01:39:13;;;;;;;19.88;6.30;;;11.30;72.30;;;;;;5055949;28;20108;-66
2021/04/10 01:41:46;;;;;;;14.48;5.47;;;11.30;72.70;;;;;;5055920;28;20082;-66
2021/04/10 01:44:14;;;;;;;20.42;5.53;;;11.20;72.70;;;;;;5055298;28;20493;-66
2021/04/10 01:46:40;;;;;;;17.33;5.13;;;11.30;72.90;;;;;;5055979;28;20029;-66
2021/04/10 01:49:07;;;;;;;13.23;4.72;;;11.20;72.90;;;;;;5055855;28;20025;-66
2021/04/10 01:51:35;;;;;;;11.80;4.75;;;11.20;73.10;;;;;;5055233;28;20386;-66
2021/04/10 01:54:02;;;;;;;7.20;3.80;;;11.10;73.20;;;;;;5055888;28;20408;-66
2021/04/10 01:56:29;;;;;;;9.02;3.78;;;11.10;73.00;;;;;;5055842;28;20063;-66
2021/04/10 01:58:55;;;;;;;13.25;4.05;;;11.10;72.80;;;;;;5055591;28;20386;-66
2021/04/10 02:01:23;;;;;;;17.42;5.10;;;11.20;72.50;;;;;;5055710;28;20492;-66
2021/04/10 02:03:49;;;;;;;12.05;4.07;;;11.20;72.10;;;;;;5055589;28;20055;-66
2021/04/10 02:06:15;;;;;;;13.63;4.45;;;11.20;71.40;;;;;;5055615;28;20029;-66
2021/04/10 02:08:43;;;;;;;12.77;4.78;;;11.20;71.30;;;;;;5055570;28;20029;-66
2021/04/10 02:11:10;;;;;;;11.88;4.30;;;11.20;71.70;;;;;;5055614;28;20074;-66
2021/04/10 02:13:38;;;;;;;15.75;4.32;;;11.20;71.80;;;;;;5055281;28;20033;-66
2021/04/10 02:16:04;;;;;;;10.05;3.45;;;11.10;71.70;;;;;;5055320;28;20044;-66
2021/04/10 02:18:30;;;;;;;6.65;2.72;;;11.10;71.50;;;;;;5054184;28;20021;-66
2021/04/10 02:21:04;;;;;;;8.60;3.72;;;11.10;71.50;;;;;;5055453;28;20056;-66
2021/04/10 02:23:30;;;;;;;10.13;2.78;;;11.10;71.70;;;;;;5055365;28;20017;-66
2021/04/10 02:25:58;;;;;;;9.30;3.33;;;11.00;71.80;;;;;;5055257;28;20028;-66
2021/04/10 02:28:24;;;;;;;8.15;2.92;;;11.00;72.40;;;;;;5055206;28;20400;-66
2021/04/10 02:30:49;;;;;;;8.68;3.05;;;11.00;72.50;;;;;;5055039;28;20063;-66
2021/04/10 02:33:25;;;;;;;9.27;3.35;;;10.90;72.70;;;;;;5055141;28;20025;-66
2021/04/10 02:35:55;;;;;;;10.25;3.08;;;10.90;72.90;;;;;;5054967;28;20041;-66
2021/04/10 02:38:22;;;;;;;6.43;2.67;;;10.80;72.90;;;;;;5055257;28;20025;-66
2021/04/10 02:40:59;;;;;;;6.45;2.83;;;10.80;73.40;;;;;;5054758;28;20116;-66
2021/04/10 02:43:28;;;;;;;9.55;3.00;;;10.70;73.40;;;;;;5054945;28;20036;-66
2021/04/10 02:46:00;;;;;;;8.45;3.38;;;10.70;73.50;;;;;;5053456;28;20075;-66
2021/04/10 02:48:36;;;;;;;10.25;3.67;;;10.70;73.30;;;;;;5054856;28;20028;-66
2021/04/10 02:51:03;;;;;;;12.05;3.85;;;10.70;73.40;;;;;;5054521;28;20057;-66
2021/04/10 02:53:34;;;;;;;11.80;4.82;;;10.60;73.20;;;;;;5054999;28;20462;-66
2021/04/10 02:56:01;;;;;;;8.82;4.78;;;10.60;73.20;;;;;;5054734;28;20071;-66
2021/04/10 02:58:29;;;;;;;12.45;4.82;;;10.60;73.30;;;;;;5054657;28;20062;-66
2021/04/10 03:00:57;;;;;;;12.27;4.37;;;10.60;73.20;;;;;;5054618;28;20040;-66
2021/04/10 03:03:23;;;;;;;11.13;4.88;;;10.50;73.10;;;;;;5054560;28;20029;-66
2021/04/10 03:05:50;;;;;;;9.70;4.50;;;10.50;73.30;;;;;;5054519;28;20028;-66
2021/04/10 03:08:20;;;;;;;10.63;3.83;;;10.50;73.30;;;;;;5054786;28;20052;-66
2021/04/10 03:10:51;;;;;;;8.90;4.03;;;10.50;73.30;;;;;;5053040;28;20036;-66
2021/04/10 03:13:18;;;;;;;9.05;3.90;;;10.50;73.40;;;;;;5037506;28;20469;-66
2021/04/10 03:15:45;;;;;;;12.48;4.20;;;10.40;73.30;;;;;;5054098;28;20112;-66
2021/04/10 03:18:12;;;;;;;11.33;3.90;;;10.50;73.30;;;;;;5054278;28;20485;-66
2021/04/10 03:20:39;;;;;;;11.27;3.97;;;10.40;73.30;;;;;;5054155;28;20082;-66
2021/04/10 03:23:05;;;;;;;9.57;3.70;;;10.40;73.30;;;;;;5054232;28;20048;-66
2021/04/10 03:25:31;;;;;;;9.50;3.33;;;10.30;73.40;;;;;;5053800;28;20029;-66
2021/04/10 03:27:57;;;;;;;15.00;4.87;;;10.40;73.40;;;;;;5054113;28;20058;-66
2021/04/10 03:30:23;;;;;;;17.60;4.15;;;10.30;73.50;;;;;;5053856;28;20125;-66
2021/04/10 03:32:50;;;;;;;9.48;4.60;;;10.30;73.60;;;;;;5054047;28;20029;-66
2021/04/10 03:35:16;;;;;;;9.43;3.53;;;10.30;73.50;;;;;;5054143;28;20025;-66
2021/04/10 03:37:42;;;;;;;18.73;5.10;;;10.30;73.50;;;;;;5053592;28;20065;-66
2021/04/10 03:40:09;;;;;;;13.63;4.13;;;10.30;73.40;;;;;;5053674;28;20021;-66
2021/04/10 03:42:44;;;;;;;8.13;3.50;;;10.20;73.70;;;;;;5053951;28;20086;-66
2021/04/10 03:45:19;;;;;;;10.15;3.40;;;10.10;73.80;;;;;;5053789;28;20035;-66
2021/04/10 03:47:45;;;;;;;12.10;4.13;;;10.10;74.70;;;;;;5053566;28;20535;-66
2021/04/10 03:50:12;;;;;;;10.80;3.27;;;10.10;74.40;;;;;;5053341;28;20045;-66
2021/04/10 03:52:38;;;;;;;13.48;3.70;;;10.00;74.30;;;;;;5053802;28;20116;-66
2021/04/10 03:55:05;;;;;;;7.67;3.60;;;10.10;74.30;;;;;;5053607;28;20033;-66
2021/04/10 03:57:35;;;;;;;9.60;3.03;;;10.10;74.50;;;;;;5053287;28;20033;-66
2021/04/10 04:00:02;;;;;;;11.17;3.70;;;10.00;74.10;;;;;;5053552;28;20025;-66
2021/04/10 04:02:28;;;;;;;7.83;2.93;;;10.00;75.10;;;;;;5053741;28;20115;-66
2021/04/10 04:04:53;;;;;;;11.57;3.00;;;10.00;74.50;;;;;;5053415;28;20067;-66
2021/04/10 04:07:19;;;;;;;9.30;3.13;;;10.00;75.10;;;;;;5053219;28;20102;-66
2021/04/10 04:09:45;;;;;;;12.97;3.20;;;9.90;75.00;;;;;;5053298;28;20021;-66
2021/04/10 04:12:11;;;;;;;10.63;3.30;;;10.00;75.10;;;;;;5053490;28;20163;-66
2021/04/10 04:14:38;;;;;;;15.17;3.90;;;9.90;74.80;;;;;;5053165;28;20107;-66
2021/04/10 04:17:06;;;;;;;9.07;3.40;;;9.90;74.60;;;;;;5053167;28;20500;-66
2021/04/10 04:19:32;;;;;;;13.37;3.80;;;9.90;74.80;;;;;;5053173;28;20039;-66
2021/04/10 04:21:59;;;;;;;12.00;3.40;;;9.80;74.80;;;;;;5053394;28;20078;-66
2021/04/10 04:24:25;;;;;;;6.00;2.80;;;9.90;75.30;;;;;;5053192;28;20021;-66
2021/04/10 04:26:50;;;;;;;9.10;3.67;;;9.80;75.20;;;;;;5052894;28;20125;-66
2021/04/10 04:29:16;;;;;;;9.17;3.60;;;9.90;75.30;;;;;;5052890;28;20029;-66
2021/04/10 04:31:42;;;;;;;7.47;3.10;;;9.90;75.50;;;;;;5053084;28;20031;-66
2021/04/10 04:34:08;;;;;;;5.63;3.10;;;9.90;75.60;;;;;;5053158;28;20454;-66
2021/04/10 04:36:33;;;;;;;8.97;3.00;;;9.90;75.50;;;;;;5053092;28;20029;-66
2021/04/10 04:38:59;;;;;;;7.07;3.30;;;9.90;75.70;;;;;;5052926;28;20025;-66
2021/04/10 04:41:25;;;;;;;10.30;4.37;;;9.90;75.60;;;;;;5052447;28;20069;-66
2021/04/10 04:43:50;;;;;;;7.87;3.40;;;9.90;75.70;;;;;;5053055;28;20107;-66
2021/04/10 04:46:16;;;;;;;6.23;3.07;;;9.80;75.10;;;;;;5052799;28;20074;-66
2021/04/10 04:48:42;;;;;;;8.40;3.43;;;9.80;75.00;;;;;;5052672;28;20544;-66
2021/04/10 04:51:08;;;;;;;11.57;3.57;;;9.80;75.00;;;;;;5052668;28;20128;-66
2021/04/10 04:53:34;;;;;;;6.23;3.50;;;9.80;75.40;;;;;;5052877;28;20120;-66
2021/04/10 04:56:00;;;;;;;6.63;3.17;;;9.90;75.60;;;;;;5052745;28;20029;-66
2021/04/10 04:58:25;;;;;;;9.77;3.53;;;9.90;75.90;;;;;;5053050;28;20064;-66
2021/04/10 05:00:51;;;;;;;6.33;3.63;;;9.90;75.70;;;;;;5052608;28;20048;-66
2021/04/10 05:03:17;;;;;;;8.10;3.60;;;9.90;75.90;;;;;;5052844;28;20503;-66
2021/04/10 05:05:42;;;;;;;9.60;4.13;;;9.90;75.90;;;;;;5052720;28;20029;-66
2021/04/10 05:08:08;;;;;;;11.87;4.17;;;9.90;76.30;;;;;;5052343;28;20370;-66
2021/04/10 05:10:34;;;;;;;11.07;3.70;;;9.90;76.90;;;;;;5052592;28;20025;-66
2021/04/10 05:13:00;;;;;;;9.87;3.50;;;9.90;76.30;;;;;;5052792;28;20025;-66
2021/04/10 05:15:25;;;;;;;5.03;3.30;;;9.90;76.60;;;;;;5052708;28;20037;-66
2021/04/10 05:17:51;;;;;;;10.60;3.90;;;10.00;76.60;;;;;;5052403;28;20040;-66
2021/04/10 05:20:17;;;;;;;11.57;3.87;;;10.00;76.70;;;;;;5052802;28;20112;-66
2021/04/10 05:22:43;;;;;;;9.40;3.67;;;10.00;76.40;;;;;;5052513;28;20025;-66
2021/04/10 05:25:09;;;;;;;16.60;4.83;;;10.10;76.50;;;;;;5052954;28;20374;-66
2021/04/10 05:27:35;;;;;;;11.57;4.18;;;10.10;76.40;;;;;;5052429;28;20025;-66
2021/04/10 05:30:01;;;;;;;7.03;3.60;;;10.10;76.20;;;;;;5052295;28;20078;-66
2021/04/10 05:32:27;;;;;;;8.07;4.40;;;10.20;76.20;;;;;;5052537;28;20026;-66
2021/04/10 05:34:53;;;;;;;8.03;4.40;;;10.20;76.00;;;;;;5052488;28;20022;-66
2021/04/10 05:37:19;;;;;;;16.77;4.60;;;10.20;75.90;;;;;;5052293;28;20078;-66
2021/04/10 05:39:46;;;;;;;11.93;3.67;;;10.30;76.00;;;;;;5052107;28;20028;-66
2021/04/10 05:42:12;;;;;;;15.33;4.93;;;10.30;75.80;;;;;;5052838;28;20027;-66
2021/04/10 05:44:38;;;;;;;8.83;3.43;;;10.30;75.80;;;;;;5052215;28;20025;-66
2021/04/10 05:47:04;;;;;;;18.50;3.87;;;10.30;76.20;;;;;;5052289;28;20075;-66
2021/04/10 05:49:29;;;;;;;10.65;4.05;;;10.30;76.30;;;;;;5051896;28;20029;-66
2021/04/10 05:51:55;;;;;;;12.77;4.30;;;10.30;76.30;;;;;;5052081;28;20037;-66
2021/04/10 05:54:21;;;;;;;15.80;4.68;;;10.30;76.30;;;;;;5055050;28;20072;-66
2021/04/10 05:56:46;;;;;;;11.53;3.70;;;10.40;76.20;;;;;;5037867;28;20083;-66
2021/04/10 05:59:12;;;;;;;11.60;3.50;;;10.40;76.90;;;;;;5055797;28;20029;-66
2021/04/10 06:01:38;;;;;;;13.25;3.90;;;10.40;76.60;;;;;;5055780;28;20032;-66
2021/04/10 06:04:04;;;;;;;8.07;3.90;;;10.40;76.20;;;;;;5055675;28;20053;-66
2021/04/10 06:06:29;;;;;;;11.90;3.78;;;10.40;76.10;;;;;;5055708;28;20100;-66
2021/04/10 06:08:55;;;;;;;7.70;3.27;;;10.50;76.00;;;;;;5055837;28;20107;-66
2021/04/10 06:11:21;;;;;;;9.93;3.60;;;10.50;75.90;;;;;;5055516;28;20072;-66
2021/04/10 06:13:46;;;;;;;9.25;3.80;;;10.60;75.80;;;;;;5055039;28;20033;-65
2021/04/10 06:16:12;;;;;;;11.18;3.42;;;10.60;75.70;;;;;;5055204;28;20397;-65
2021/04/10 06:18:38;;;;;;;7.93;3.58;;;10.60;75.40;;;;;;5053180;28;20061;-70
2021/04/10 06:21:05;;;;;;;12.38;3.65;;;10.70;74.90;;;;;;5041768;28;20555;-65
2021/04/10 06:23:31;;;;;;;9.50;4.22;;;10.70;74.90;;;;;;5042922;28;20057;-66
2021/04/10 06:25:57;;;;;;;8.07;3.50;;;10.70;74.80;;;;;;5046814;28;20045;-67
2021/04/10 06:28:23;;;;;;;10.85;3.80;;;10.70;74.70;;;;;;5053278;28;20028;-69
2021/04/10 06:30:48;;;;;;;6.93;3.10;;;10.80;74.60;;;;;;5053623;28;20060;-67
2021/04/10 06:33:14;;;;;;;14.32;4.00;;;10.80;74.30;;;;;;5054273;28;20017;-67
2021/04/10 06:35:40;;;;;;;10.27;4.07;;;10.80;74.20;;;;;;5052921;28;20029;-65
2021/04/10 06:38:06;;;;;;;8.65;3.67;;;10.90;74.20;;;;;;5054711;28;20053;-63
2021/04/10 06:40:33;;;;;;;11.00;4.25;;;10.90;74.40;;;;;;5054923;28;20059;-66
2021/04/10 06:43:01;;;;;;;11.35;4.30;;;10.90;74.40;;;;;;5054565;28;20100;-65
2021/04/10 06:45:27;;;;;;;11.85;3.65;;;10.90;74.20;;;;;;5054685;28;20469;-64
2021/04/10 06:47:54;;;;;;;15.43;4.30;;;11.00;74.60;;;;;;5054730;28;20052;-65
2021/04/10 06:50:21;;;;;;;16.95;4.65;;;11.00;73.90;;;;;;5054426;28;20045;-66
2021/04/10 06:52:48;;;;;;;10.95;3.90;;;11.00;74.00;;;;;;5054731;28;20517;-65
2021/04/10 06:55:16;;;;;;;15.88;4.18;;;11.10;73.90;;;;;;5054394;28;20051;-65
2021/04/10 06:57:54;;;;;;;13.57;3.78;;;11.10;74.00;;;;;;5054365;28;20473;-66
2021/04/10 07:00:20;;;;;;;8.75;4.13;;;11.20;74.00;;;;;;5054269;28;20014;-66
2021/04/10 07:02:48;;;;;;;14.68;3.85;;;11.20;73.70;;;;;;5054271;28;20478;-65
2021/04/10 07:05:14;;;;;;;18.15;3.53;;;11.30;73.50;;;;;;5053446;28;20480;-65
2021/04/10 07:07:42;;;;;;;10.88;3.80;;;11.30;73.20;;;;;;5054301;28;20492;-64
2021/04/10 07:10:08;;;;;;;11.48;3.38;;;11.40;72.90;;;;;;5051830;28;20017;-65
2021/04/10 07:12:37;;;;;;;13.60;3.00;;;11.50;72.50;;;;;;5048085;28;20028;-65
2021/04/10 07:15:06;;;;;;;9.43;3.35;;;11.50;72.20;;;;;;5049217;28;20037;-66
2021/04/10 07:17:32;;;;;;;11.20;3.60;;;11.60;71.90;;;;;;5049068;28;20044;-65
2021/04/10 07:19:57;;;;;;;8.52;3.92;;;11.70;71.80;;;;;;5051014;28;20017;-65
2021/04/10 07:22:23;;;;;;;16.33;3.63;;;11.70;71.50;;;;;;5053572;28;20385;-64
2021/04/10 07:24:50;;;;;;;12.63;3.20;;;11.80;71.30;;;;;;5052631;28;20013;-65
2021/04/10 07:27:24;;;;;;;16.85;2.92;;;11.80;71.40;;;;;;5058088;28;20025;-65
2021/04/10 07:29:51;;;;;;;13.00;3.10;;;11.90;71.10;;;;;;5051975;28;20023;-65
2021/04/10 07:32:28;;;;;;;15.65;3.30;;;11.90;70.50;;;;;;5053829;28;20025;-66
2021/04/10 07:34:55;;;;;;;9.27;2.60;;;11.90;70.50;;;;;;5053804;28;20027;-65
2021/04/10 07:37:34;;;;;;;10.45;4.07;;;12.00;70.00;;;;;;5053205;28;20470;-66
2021/04/10 07:40:06;;;;;;;8.38;2.50;;;12.00;70.40;;;;;;5051198;28;20063;-66
2021/04/10 07:42:34;;;;;;;10.23;2.53;;;12.00;69.40;;;;;;5050995;28;20505;-66
2021/04/10 07:45:00;;;;;;;11.35;2.88;;;12.00;68.80;;;;;;5049240;28;20484;-66
2021/04/10 07:47:39;;;;;;;11.95;2.30;;;12.10;68.90;;;;;;5052829;28;20029;-66
2021/04/10 07:50:26;;;;;;;7.07;2.10;;;12.10;68.10;;;;;;5050206;28;20072;-66
2021/04/10 07:52:52;;;;;;;12.15;2.58;;;12.10;67.20;;;;;;5049656;28;20037;-66
2021/04/10 07:55:40;;;;;;;4.38;1.70;;;12.10;65.00;;;;;;5053717;28;20075;-66
2021/04/10 07:58:25;;;;;;;6.57;1.77;;;12.10;64.30;;;;;;5052553;28;20107;-65
2021/04/10 08:00:53;;;;;;;6.88;2.03;;;12.00;64.80;;;;;;5048067;28;20089;-66
2021/04/10 08:03:26;;;;;;;7.03;2.50;;;12.00;64.70;;;;;;5051068;28;20017;-66
2021/04/10 08:05:52;;;;;;;6.22;1.70;;;12.00;64.00;;;;;;5049802;28;20055;-66
2021/04/10 08:08:25;;;;;;;6.90;1.70;;;11.90;63.20;;;;;;5053221;28;20531;-66
2021/04/10 08:11:02;;;;;;;6.85;1.70;;;11.90;64.00;;;;;;5053418;28;20033;-66
2021/04/10 08:13:29;;;;;;;6.65;1.80;;;12.00;63.70;;;;;;5053540;28;20029;-68
2021/04/10 08:16:14;;;;;;;4.35;1.50;;;12.00;63.30;;;;;;5046109;28;20021;-68
2021/04/10 08:18:54;;;;;;;4.95;1.80;;;12.10;63.20;;;;;;5033527;28;20071;-66
2021/04/10 08:21:32;;;;;;;7.78;1.52;;;12.10;61.50;;;;;;5045647;28;20037;-66
2021/04/10 08:23:59;;;;;;;5.55;1.77;;;12.10;61.60;;;;;;5052981;28;20072;-66
2021/04/10 08:26:26;;;;;;;9.38;1.65;;;12.10;60.60;;;;;;5051704;28;20056;-67
2021/04/10 08:28:52;;;;;;;6.80;1.45;;;12.10;61.00;;;;;;5043098;28;20025;-68
2021/04/10 08:31:18;;;;;;;8.10;1.70;;;12.10;60.70;;;;;;5040888;28;20463;-66
2021/04/10 08:33:44;;;;;;;10.07;1.80;;;12.10;61.10;;;;;;5035798;28;20085;-66
2021/04/10 08:36:11;;;;;;;5.88;2.20;;;12.10;60.50;;;;;;5052809;28;20037;-66
2021/04/10 08:38:41;;;;;;;10.00;2.45;;;12.10;61.60;;;;;;5053139;28;20029;-66
2021/04/10 08:41:09;;;;;;;5.70;1.40;;;12.10;60.20;;;;;;5053085;28;20036;-67
2021/04/10 08:43:39;;;;;;;6.00;1.55;;;12.20;60.50;;;;;;5052809;28;20460;-67
2021/04/10 08:46:08;;;;;;;5.38;1.50;;;12.20;60.90;;;;;;5052674;28;20029;-66
2021/04/10 08:48:35;;;;;;;7.32;1.63;;;12.20;61.60;;;;;;5052792;28;20025;-66
2021/04/10 08:51:03;;;;;;;3.58;1.33;;;12.30;61.20;;;;;;5048376;28;20032;-66
2021/04/10 08:53:36;;;;;;;7.07;1.58;;;12.40;61.40;;;;;;5048713;28;20086;-66
2021/04/10 08:56:08;;;;;;;5.55;1.50;;;12.40;60.70;;;;;;5047940;28;20037;-66
2021/04/10 08:58:37;;;;;;;4.00;1.48;;;12.50;59.80;;;;;;5047365;28;20017;-67
2021/04/10 09:01:08;;;;;;;6.63;1.67;;;12.50;59.30;;;;;;5047678;28;20056;-67
2021/04/10 09:03:45;;;;;;;4.55;1.65;;;12.60;59.30;;;;;;5046127;28;20028;-66
2021/04/10 09:06:30;;;;;;;6.15;1.63;;;12.70;57.60;;;;;;5031858;28;20029;-66
2021/04/10 09:09:11;;;;;;;4.55;1.25;;;12.70;57.30;;;;;;5031799;28;20025;-67
2021/04/10 09:11:37;;;;;;;6.07;1.38;;;12.80;57.50;;;;;;5045583;28;20028;-66
2021/04/10 09:14:04;;;;;;;9.63;2.67;;;12.80;55.80;;;;;;5050971;28;20488;-74
2021/04/10 09:16:49;;;;;;;3.15;1.48;;;12.90;56.70;;;;;;5033636;28;20048;-69
2021/04/10 09:19:20;;;;;;;5.15;1.48;;;12.90;55.80;;;;;;5060950;28;20436;-74
2021/04/10 09:21:48;;;;;;;9.05;1.55;;;13.00;54.00;;;;;;5050221;28;20037;-74
2021/04/10 09:24:18;;;;;;;5.43;1.50;;;13.00;54.50;;;;;;5049091;28;20029;-67
2021/04/10 09:26:57;;;;;;;4.10;1.45;;;13.10;54.80;;;;;;5051867;28;20029;-68
2021/04/10 09:29:24;;;;;;;5.32;1.17;;;13.20;54.30;;;;;;5052278;28;20025;-66
2021/04/10 09:32:01;;;;;;;4.55;1.00;;;13.30;53.00;;;;;;5053106;28;20017;-66
2021/04/10 09:35:06;;;;;;;19.67;1.65;;;13.40;52.20;;;;;;5047630;28;20025;-67
2021/04/10 09:37:31;;;;;;;4.95;1.30;;;13.50;53.90;;;;;;5034740;28;20064;-68
2021/04/10 09:40:05;;;;;;;4.25;1.33;;;13.60;54.20;;;;;;5037937;28;20460;-74
2021/04/10 09:42:44;;;;;;;3.72;1.50;;;13.70;55.30;;;;;;5055898;28;20025;-71
2021/04/10 09:45:23;;;;;;;5.15;1.88;;;13.90;53.80;;;;;;5055861;28;20409;-74
2021/04/10 09:47:59;;;;;;;4.43;1.27;;;14.10;54.20;;;;;;5053809;28;20083;-72
2021/04/10 09:50:32;;;;;;;8.10;1.80;;;14.20;51.40;;;;;;5055270;28;20048;-70
2021/04/10 09:53:00;;;;;;;9.38;3.60;;;14.40;52.50;;;;;;5053396;28;20448;-72
2021/04/10 09:55:27;;;;;;;7.00;1.65;;;14.50;53.50;;;;;;5052675;28;20432;-71
2021/04/10 09:58:01;;;;;;;7.13;1.50;;;14.60;51.80;;;;;;5052446;28;20033;-73
2021/04/10 10:00:33;;;;;;;6.20;1.83;;;14.60;52.70;;;;;;5053113;28;20025;-71
2021/04/10 10:03:00;;;;;;;6.25;1.75;;;14.60;52.40;;;;;;5035286;28;20172;-71
2021/04/10 10:05:37;;;;;;;3.78;1.40;;;14.60;53.10;;;;;;5039533;28;20025;-71
2021/04/10 10:08:05;;;;;;;6.38;2.10;;;14.60;52.00;;;;;;5053832;28;20032;-72
2021/04/10 10:10:37;;;;;;;8.13;1.27;;;14.70;51.80;;;;;;5054769;28;20017;-72
2021/04/10 10:13:03;;;;;;;11.27;1.20;;;14.70;53.00;;;;;;5050887;28;20112;-72
2021/04/10 10:15:29;;;;;;;5.63;1.33;;;14.80;53.00;;;;;;5037519;28;20470;-69
2021/04/10 10:17:55;;;;;;;7.38;1.40;;;14.90;51.90;;;;;;5049577;28;20131;-66
2021/04/10 10:20:21;;;;;;;7.93;1.15;;;14.90;51.70;;;;;;5015124;28;20029;-65
2021/04/10 10:22:47;;;;;;;5.25;1.27;;;14.80;49.20;;;;;;5054459;28;20037;-65
2021/04/10 10:25:13;;;;;;;6.50;2.00;;;14.80;50.40;;;;;;5047244;28;20029;-65
2021/04/10 10:27:47;;;;;;;5.18;1.30;;;14.80;50.60;;;;;;5037857;28;20017;-67
2021/04/10 10:30:18;;;;;;;6.38;1.40;;;14.80;51.40;;;;;;5046099;28;20029;-66
2021/04/10 10:32:49;;;;;;;6.18;1.40;;;14.90;52.70;;;;;;5050434;28;20017;-67
2021/04/10 10:35:18;;;;;;;7.40;2.10;;;15.00;52.70;;;;;;5052259;28;20024;-68
2021/04/10 10:37:50;;;;;;;4.50;1.10;;;15.00;53.30;;;;;;5049912;28;20056;-69
2021/04/10 10:40:24;;;;;;;7.18;1.52;;;15.00;54.30;;;;;;5052221;28;20535;-66
2021/04/10 10:43:03;;;;;;;8.82;1.90;;;15.00;51.20;;;;;;5054991;28;20049;-68
2021/04/10 10:45:48;;;;;;;4.63;1.50;;;15.10;51.10;;;;;;5055034;28;20033;-67
2021/04/10 10:48:20;;;;;;;5.60;2.03;;;15.10;50.70;;;;;;5053387;28;20376;-67
2021/04/10 10:50:46;;;;;;;5.93;2.13;;;15.20;49.10;;;;;;5054614;28;20045;-66
2021/04/10 10:53:14;;;;;;;4.93;1.70;;;15.30;48.70;;;;;;5054759;28;20024;-68
2021/04/10 10:55:57;;;;;;;8.95;1.60;;;15.30;48.00;;;;;;5054626;28;20276;-66
2021/04/10 10:58:23;;;;;;;9.70;1.80;;;15.40;46.50;;;;;;5054981;28;20032;-66
2021/04/10 11:00:54;;;;;;;6.95;1.77;;;15.40;46.80;;;;;;5054813;28;20025;-66
2021/04/10 11:03:22;;;;;;;7.85;1.60;;;15.50;48.50;;;;;;5053323;28;20021;-71
2021/04/10 11:05:52;;;;;;;4.75;1.52;;;15.60;47.40;;;;;;5052912;28;20021;-70
2021/04/10 11:08:19;;;;;;;5.22;1.85;;;15.60;48.90;;;;;;5053514;28;20025;-70
2021/04/10 11:10:46;;;;;;;5.35;1.48;;;15.70;47.80;;;;;;5053626;28;20475;-71
2021/04/10 11:13:14;;;;;;;4.05;1.80;;;15.80;49.30;;;;;;5049548;28;20025;-69
2021/04/10 11:15:43;;;;;;;5.38;1.35;;;15.90;45.10;;;;;;5054138;28;20048;-69
2021/04/10 11:18:42;;;;;;;6.10;1.40;;;15.90;45.70;;;;;;5054486;28;20060;-68
2021/04/10 11:21:21;;;;;;;6.30;1.63;;;15.90;46.10;;;;;;5018342;28;20037;-68
2021/04/10 11:24:08;;;;;;;5.13;1.58;;;16.00;44.90;;;;;;5051711;28;20017;-71
2021/04/10 11:26:46;;;;;;;2.28;1.40;;;16.00;44.40;;;;;;5048754;28;20067;-72
2021/04/10 11:29:20;;;;;;;9.60;1.20;;;16.10;43.40;;;;;;5051913;28;20031;-72
2021/04/10 11:32:15;;;;;;;3.53;1.25;;;16.20;43.80;;;;;;5054090;28;20021;-69
2021/04/10 11:34:47;;;;;;;6.60;1.48;;;16.30;44.70;;;;;;5049337;28;20025;-69
2021/04/10 11:37:17;;;;;;;3.00;1.55;;;16.30;44.80;;;;;;5051081;28;20416;-68
2021/04/10 11:39:59;;;;;;;6.18;1.50;;;16.40;44.30;;;;;;5052651;28;20017;-68
2021/04/10 11:42:43;;;;;;;8.02;1.40;;;16.50;43.80;;;;;;5053829;28;20029;-69
2021/04/10 11:45:12;;;;;;;6.07;1.25;;;16.50;44.10;;;;;;5053761;28;20028;-68
2021/04/10 11:47:39;;;;;;;4.13;1.45;;;16.60;44.40;;;;;;5052185;28;20069;-68
2021/04/10 11:50:05;;;;;;;4.72;1.60;;;16.70;44.00;;;;;;5052555;28;20037;-70
2021/04/10 11:52:31;;;;;;;5.65;1.95;;;16.70;45.20;;;;;;5052047;28;20036;-69
2021/04/10 11:55:02;;;;;;;8.75;1.30;;;16.90;43.90;;;;;;5052740;28;20021;-70
2021/04/10 11:57:32;;;;;;;4.68;1.73;;;16.90;42.60;;;;;;5040869;28;20044;-69
2021/04/10 12:00:07;;;;;;;4.50;1.35;;;17.00;41.50;;;;;;5052935;28;20025;-69
2021/04/10 12:02:35;;;;;;;4.05;1.30;;;17.00;41.20;;;;;;5053004;28;20029;-69
2021/04/10 12:05:26;;;;;;;4.18;1.30;;;17.10;40.40;;;;;;5052937;28;20033;-69
2021/04/10 12:08:30;;;;;;;4.13;1.30;;;17.10;39.70;;;;;;5053401;28;20044;-69
2021/04/10 12:11:00;;;;;;;5.65;2.08;;;17.10;39.80;;;;;;5049898;28;20040;-69
2021/04/10 12:13:27;;;;;;;5.80;1.20;;;17.10;40.10;;;;;;5053285;28;20361;-70
2021/04/10 12:15:57;;;;;;;2.90;1.25;;;17.10;40.00;;;;;;5049207;28;20032;-70
2021/04/10 12:18:26;;;;;;;7.28;2.30;;;17.10;41.20;;;;;;5051486;28;20025;-69
2021/04/10 12:20:54;;;;;;;4.63;2.05;;;17.10;39.50;;;;;;5051018;28;20573;-72
2021/04/10 12:23:20;;;;;;;3.95;1.40;;;17.10;39.10;;;;;;5049997;28;20100;-69
2021/04/10 12:25:46;;;;;;;2.90;1.23;;;17.00;39.40;;;;;;5052557;28;20017;-69
2021/04/10 12:28:13;;;;;;;3.50;1.40;;;17.00;40.10;;;;;;5050774;28;20033;-69
2021/04/10 12:30:39;;;;;;;3.53;1.38;;;17.10;40.60;;;;;;5052844;28;20029;-70
2021/04/10 12:33:05;;;;;;;7.38;1.80;;;17.20;41.90;;;;;;5052521;28;20411;-69
2021/04/10 12:35:31;;;;;;;4.95;1.60;;;17.20;37.50;;;;;;5050166;28;20095;-70
2021/04/10 12:37:57;;;;;;;4.45;1.70;;;17.20;39.40;;;;;;5050456;28;20061;-69
2021/04/10 12:40:23;;;;;;;10.30;1.90;;;17.20;40.20;;;;;;5051037;28;20057;-68
2021/04/10 12:42:49;;;;;;;4.43;1.20;;;17.20;39.00;;;;;;5053085;28;20035;-68
2021/04/10 12:45:15;;;;;;;4.05;1.67;;;17.20;40.30;;;;;;5052823;28;20029;-69
2021/04/10 12:47:46;;;;;;;4.13;1.63;;;17.30;41.60;;;;;;5052965;28;20079;-69
2021/04/10 12:50:15;;;;;;;2.90;1.50;;;17.30;41.10;;;;;;5052450;28;20041;-67
2021/04/10 12:52:41;;;;;;;8.50;1.85;;;17.40;41.30;;;;;;5052338;28;20433;-68
2021/04/10 12:55:07;;;;;;;5.05;1.60;;;17.40;39.30;;;;;;5052870;28;20056;-68